Time;durP1;ratioP1;P1;durP2;ratioP2;P2;SDS_P1;SDS_P2;PMS_P1;PMS_P2;Temp;Humidity;BMP_temperature;BMP_pressure;BME280_temperature;BME280_humidity;BME280_pressure;Samples;Min_cycle;Max_cycle;Signal;HPM_P1;HPM_P2
2023/09/19 00:00:21;;;;;;;12.73;2.40;;;;;;;13.30;100.00;100696.28;4936426;29;20055;-89
2023/09/19 00:02:59;;;;;;;13.45;2.00;;;;;;;13.17;100.00;100671.56;4931824;29;20391;-89
2023/09/19 00:05:25;;;;;;;14.88;2.13;;;;;;;13.16;100.00;100682.63;4914350;29;20392;-89
2023/09/19 00:07:54;;;;;;;19.38;1.98;;;;;;;13.20;100.00;100699.00;4913224;29;20365;-88
2023/09/19 00:10:24;;;;;;;20.65;2.50;;;;;;;13.14;100.00;100693.69;4925080;29;20038;-89
2023/09/19 00:12:49;;;;;;;15.90;2.45;;;;;;;13.11;100.00;100691.53;4931596;29;20403;-89
2023/09/19 00:15:17;;;;;;;13.93;2.17;;;;;;;13.10;100.00;100702.56;4949836;28;20106;-89
2023/09/19 00:17:43;;;;;;;15.70;2.75;;;;;;;12.96;100.00;100692.41;4931862;29;20399;-89
2023/09/19 00:20:12;;;;;;;16.20;2.80;;;;;;;12.94;100.00;100686.50;4933264;29;20027;-89
2023/09/19 00:22:42;;;;;;;14.48;2.40;;;;;;;13.01;100.00;100705.84;4931771;29;20035;-89
2023/09/19 00:25:09;;;;;;;11.03;2.03;;;;;;;12.97;100.00;100712.84;4921022;29;20035;-89
2023/09/19 00:27:41;;;;;;;19.83;2.50;;;;;;;12.93;100.00;100711.78;4917362;29;20658;-89
2023/09/19 00:30:09;;;;;;;11.40;2.42;;;;;;;12.85;100.00;100710.50;4932335;29;20150;-89
2023/09/19 00:32:34;;;;;;;11.73;2.30;;;;;;;12.72;100.00;100706.50;4944132;29;20031;-89
2023/09/19 00:35:00;;;;;;;16.83;2.70;;;;;;;12.75;100.00;100718.59;4937768;29;20398;-88
2023/09/19 00:37:25;;;;;;;14.60;2.90;;;;;;;12.79;100.00;100721.53;4928996;29;20456;-88
2023/09/19 00:39:51;;;;;;;13.60;2.73;;;;;;;12.75;100.00;100729.38;4920132;29;20058;-89
2023/09/19 00:42:21;;;;;;;18.83;2.70;;;;;;;12.67;100.00;100724.53;4931245;29;20028;-88
2023/09/19 00:44:47;;;;;;;12.45;2.50;;;;;;;12.60;100.00;100715.97;4923285;29;20095;-87
2023/09/19 00:47:17;;;;;;;13.07;2.00;;;;;;;12.72;100.00;100735.28;4915871;29;20110;-86
2023/09/19 00:49:44;;;;;;;13.10;2.17;;;;;;;12.51;100.00;100707.66;4931468;29;20024;-86
2023/09/19 00:52:12;;;;;;;16.77;2.33;;;;;;;12.68;100.00;100743.09;4944420;29;20118;-86
2023/09/19 00:54:37;;;;;;;13.10;2.22;;;;;;;12.67;100.00;100743.34;4939249;29;20046;-86
2023/09/19 00:57:03;;;;;;;13.50;2.43;;;;;;;12.69;100.00;100747.38;4946793;29;20110;-86
2023/09/19 00:59:30;;;;;;;15.60;2.08;;;;;;;12.68;100.00;100743.09;4932247;29;20027;-87
2023/09/19 01:01:56;;;;;;;12.45;2.75;;;;;;;12.73;100.00;100758.41;4947976;28;20077;-87
2023/09/19 01:04:22;;;;;;;10.48;2.03;;;;;;;12.67;100.00;100756.81;4930023;29;20399;-89
2023/09/19 01:06:52;;;;;;;14.00;1.83;;;;;;;12.62;100.00;100754.94;4929920;29;20540;-88
2023/09/19 01:09:18;;;;;;;14.53;2.53;;;;;;;12.59;100.00;100746.63;4913320;29;20291;-89
2023/09/19 01:11:47;;;;;;;11.35;2.17;;;;;;;12.66;100.00;100774.00;4923317;29;20025;-88
2023/09/19 01:14:58;;;;;;;13.73;2.25;;;;;;;12.63;100.00;100764.63;4930015;29;20040;-89
2023/09/19 01:17:34;;;;;;;11.70;2.10;;;;;;;12.60;100.00;100764.38;4913330;29;20024;-88
2023/09/19 01:20:19;;;;;;;13.95;2.70;;;;;;;12.58;100.00;100767.31;4936287;29;20028;-88
2023/09/19 01:23:14;;;;;;;16.40;2.35;;;;;;;12.55;100.00;100763.28;4935455;29;20035;-89
2023/09/19 01:26:01;;;;;;;13.27;2.63;;;;;;;12.55;100.00;100770.53;4931996;29;20372;-88
2023/09/19 01:28:36;;;;;;;11.40;1.92;;;;;;;12.48;100.00;100759.28;4942213;29;20344;-88
2023/09/19 01:31:03;;;;;;;15.70;2.13;;;;;;;12.57;100.00;100777.28;4950866;29;20070;-89
2023/09/19 01:33:33;;;;;;;13.77;2.30;;;;;;;12.48;100.00;100751.22;4932038;29;20307;-88
2023/09/19 01:35:59;;;;;;;13.45;2.25;;;;;;;12.53;100.00;100759.25;4927916;29;20024;-88
2023/09/19 01:38:25;;;;;;;12.85;2.45;;;;;;;12.62;100.00;100783.69;4926764;29;20043;-88
2023/09/19 01:41:07;;;;;;;9.93;2.10;;;;;;;12.42;100.00;100756.59;4933906;29;20059;-88
2023/09/19 01:43:41;;;;;;;13.97;2.63;;;;;;;12.59;100.00;100784.25;4916086;29;20040;-88
2023/09/19 01:46:13;;;;;;;16.53;2.00;;;;;;;12.57;100.00;100793.41;4926100;29;20343;-89
2023/09/19 01:48:46;;;;;;;15.80;2.15;;;;;;;12.55;100.00;100787.47;4934460;29;20035;-88
2023/09/19 01:51:20;;;;;;;14.10;2.33;;;;;;;12.47;100.00;100784.53;4941037;29;20035;-89
2023/09/19 01:54:13;;;;;;;11.18;1.70;;;;;;;12.50;100.00;100803.59;4933665;29;20042;-88
2023/09/19 01:57:05;;;;;;;8.80;2.17;;;;;;;12.44;100.00;100793.94;4942076;29;20051;-88
2023/09/19 01:59:37;;;;;;;15.73;2.03;;;;;;;12.39;100.00;100785.91;4919189;29;20038;-91
2023/09/19 02:02:06;;;;;;;15.05;2.45;;;;;;;12.27;100.00;100770.06;4933627;29;20114;-88
2023/09/19 02:04:34;;;;;;;12.40;1.85;;;;;;;12.37;100.00;100788.84;4934849;29;20032;-89
2023/09/19 02:07:01;;;;;;;13.30;2.00;;;;;;;12.43;100.00;100786.94;4934387;29;20034;-88
2023/09/19 02:09:26;;;;;;;18.40;2.20;;;;;;;12.38;100.00;100785.06;4934300;29;20054;-89
2023/09/19 02:11:52;;;;;;;14.02;2.05;;;;;;;12.37;100.00;100790.72;4932859;29;20015;-88
2023/09/19 02:14:19;;;;;;;17.23;2.47;;;;;;;12.31;100.00;100770.31;4923617;29;20778;-89
2023/09/19 02:16:45;;;;;;;20.13;2.55;;;;;;;12.20;100.00;100759.59;4933159;29;20024;-87
2023/09/19 02:19:10;;;;;;;10.00;1.77;;;;;;;12.36;100.00;100795.28;4934272;29;20054;-86
2023/09/19 02:21:35;;;;;;;15.77;2.47;;;;;;;12.32;100.00;100788.03;4934946;29;20346;-89
2023/09/19 02:24:03;;;;;;;10.63;2.10;;;;;;;12.35;100.00;100790.19;4952052;28;20023;-88
2023/09/19 02:26:28;;;;;;;22.67;2.42;;;;;;;12.34;100.00;100792.06;4901481;29;20115;-88
2023/09/19 02:28:53;;;;;;;13.17;2.13;;;;;;;12.24;100.00;100782.13;4931500;29;20119;-88
2023/09/19 02:31:19;;;;;;;10.53;1.83;;;;;;;12.24;100.00;100787.50;4922446;29;20027;-88
2023/09/19 02:33:46;;;;;;;14.27;2.13;;;;;;;12.20;100.00;100789.13;4957329;29;20035;-88
2023/09/19 02:36:11;;;;;;;15.07;2.23;;;;;;;12.29;100.00;100805.53;4952618;29;20042;-88
2023/09/19 02:38:37;;;;;;;8.13;2.20;;;;;;;12.21;100.00;100796.13;4939388;29;20382;-88
2023/09/19 02:41:03;;;;;;;12.70;2.40;;;;;;;12.12;100.00;100778.91;4916274;29;20040;-89
2023/09/19 02:43:28;;;;;;;8.90;1.98;;;;;;;12.17;100.00;100799.59;4949128;29;20023;-88
2023/09/19 02:45:54;;;;;;;10.02;2.00;;;;;;;12.11;100.00;100805.00;4939490;29;20047;-89
2023/09/19 02:48:19;;;;;;;9.37;1.67;;;;;;;11.87;100.00;100779.69;4923926;29;20491;-88
2023/09/19 02:50:46;;;;;;;12.67;2.17;;;;;;;11.95;100.00;100795.28;4933920;29;20086;-89
2023/09/19 02:53:13;;;;;;;13.05;1.90;;;;;;;11.94;100.00;100804.41;4942261;29;20021;-88
2023/09/19 02:55:40;;;;;;;12.02;1.75;;;;;;;11.95;100.00;100811.41;4934233;29;20031;-89
2023/09/19 02:58:07;;;;;;;10.45;2.03;;;;;;;11.94;100.00;100817.84;4915981;29;20628;-89
2023/09/19 03:00:36;;;;;;;10.32;1.90;;;;;;;11.88;100.00;100808.94;4933022;29;20046;-88
2023/09/19 03:05:38;;;;;;;11.65;2.00;;;;;;;11.80;100.00;100806.81;4048050;27;20079;-89
2023/09/19 03:08:04;;;;;;;11.00;1.97;;;;;;;11.83;100.00;100817.03;4924582;29;20024;-89
2023/09/19 03:10:30;;;;;;;13.17;2.37;;;;;;;11.87;100.00;100822.66;4914460;29;20356;-89
2023/09/19 03:12:57;;;;;;;12.57;2.17;;;;;;;11.86;100.00;100819.19;4914120;29;20140;-88
2023/09/19 03:15:22;;;;;;;15.18;2.58;;;;;;;11.86;100.00;100816.50;4934537;29;20046;-88
2023/09/19 03:17:48;;;;;;;15.27;1.97;;;;;;;11.79;100.00;100807.88;4928563;29;20032;-89
2023/09/19 03:20:17;;;;;;;9.75;1.67;;;;;;;11.85;100.00;100811.38;4933689;29;20035;-89
2023/09/19 03:22:42;;;;;;;16.25;2.00;;;;;;;11.88;100.00;100817.00;4931543;29;20095;-88
2023/09/19 03:25:08;;;;;;;16.52;2.50;;;;;;;11.74;100.00;100797.13;4931939;29;20468;-88
2023/09/19 03:27:37;;;;;;;9.13;1.70;;;;;;;11.79;100.00;100813.25;4933526;29;20044;-88
2023/09/19 03:30:08;;;;;;;9.43;1.90;;;;;;;11.82;100.00;100820.78;4930806;29;20498;-88
2023/09/19 03:32:34;;;;;;;7.95;1.70;;;;;;;11.68;100.00;100796.31;4928223;29;20032;-88
2023/09/19 03:34:59;;;;;;;10.27;1.42;;;;;;;11.79;100.00;100807.88;4933904;29;20035;-88
2023/09/19 03:37:25;;;;;;;10.73;1.87;;;;;;;11.79;100.00;100811.34;4933583;29;20543;-88
2023/09/19 03:39:50;;;;;;;14.10;2.07;;;;;;;11.79;100.00;100807.88;4932779;29;20141;-88
2023/09/19 03:42:15;;;;;;;10.20;2.37;;;;;;;11.68;100.00;100787.47;4930503;29;20361;-90
2023/09/19 03:44:41;;;;;;;13.33;2.00;;;;;;;11.81;100.00;100811.09;4933389;29;20291;-92
2023/09/19 03:47:06;;;;;;;8.13;1.90;;;;;;;11.72;100.00;100788.53;4931126;29;20162;-90
2023/09/19 03:49:32;;;;;;;7.90;2.27;;;;;;;11.82;100.00;100812.72;4916490;29;20027;-90
2023/09/19 03:51:57;;;;;;;10.43;1.88;;;;;;;11.78;100.00;100798.22;4934101;29;20032;-89
2023/09/19 03:54:22;;;;;;;8.30;1.80;;;;;;;11.81;100.00;100797.69;4944922;29;20043;-89
2023/09/19 03:56:48;;;;;;;14.17;2.17;;;;;;;11.84;100.00;100805.22;4934412;29;20028;-90
2023/09/19 03:59:13;;;;;;;8.30;1.83;;;;;;;11.74;100.00;100787.22;4940907;29;20028;-90
2023/09/19 04:01:39;;;;;;;12.82;2.58;;;;;;;11.79;100.00;100803.31;4948257;29;20027;-91
2023/09/19 04:04:08;;;;;;;13.93;2.30;;;;;;;11.77;100.00;100799.28;4934153;29;20032;-91
2023/09/19 04:06:36;;;;;;;9.45;1.77;;;;;;;11.79;100.00;100811.34;4933559;29;20114;-91
2023/09/19 04:09:07;;;;;;;12.40;2.25;;;;;;;11.80;100.00;100793.38;4933952;29;20024;-91
2023/09/19 04:11:33;;;;;;;12.83;1.83;;;;;;;11.71;100.00;100789.59;4932629;29;20027;-90
2023/09/19 04:13:58;;;;;;;12.37;2.07;;;;;;;11.82;100.00;100804.66;4926897;29;20307;-90
2023/09/19 04:16:23;;;;;;;9.90;1.90;;;;;;;11.81;100.00;100793.09;4933769;29;20031;-89
2023/09/19 04:18:49;;;;;;;17.10;1.70;;;;;;;11.77;100.00;100784.00;4933151;29;20054;-88
2023/09/19 04:21:14;;;;;;;8.53;1.63;;;;;;;11.89;100.00;100802.50;4932622;29;20059;-89
2023/09/19 04:23:39;;;;;;;14.60;2.00;;;;;;;11.91;100.00;100811.09;4932046;29;20100;-89
2023/09/19 04:26:05;;;;;;;11.90;2.17;;;;;;;11.76;100.00;100803.03;4932177;29;20032;-89
2023/09/19 04:28:32;;;;;;;13.93;2.00;;;;;;;11.94;100.00;100834.75;4933148;29;20020;-89
2023/09/19 04:30:58;;;;;;;13.80;2.17;;;;;;;11.96;100.00;100837.16;4931749;29;20111;-88
2023/09/19 04:33:24;;;;;;;10.10;1.70;;;;;;;11.84;100.00;100824.00;4930234;29;20587;-89
2023/09/19 04:35:50;;;;;;;10.80;1.90;;;;;;;11.92;100.00;100847.63;4933073;29;20082;-89
2023/09/19 04:38:17;;;;;;;19.52;2.60;;;;;;;11.86;100.00;100837.16;4933320;29;20638;-90
2023/09/19 04:40:43;;;;;;;12.07;1.90;;;;;;;11.89;100.00;100847.34;4931466;29;20091;-91
2023/09/19 04:43:08;;;;;;;13.93;2.60;;;;;;;11.92;100.00;100853.00;4933402;29;20035;-89
2023/09/19 04:45:34;;;;;;;17.08;1.80;;;;;;;12.04;100.00;100865.41;4915205;29;20044;-90
2023/09/19 04:47:59;;;;;;;13.40;1.70;;;;;;;12.05;100.00;100850.91;4933137;29;20031;-90
2023/09/19 04:50:27;;;;;;;8.93;1.83;;;;;;;12.19;100.00;100865.44;4931466;29;20131;-90
2023/09/19 04:52:53;;;;;;;11.40;2.20;;;;;;;12.24;100.00;100865.41;4931831;29;20036;-90
2023/09/19 04:55:19;;;;;;;9.48;2.08;;;;;;;12.39;100.00;100883.44;4932659;29;20028;-90
2023/09/19 04:57:49;;;;;;;13.40;1.90;;;;;;;12.38;100.00;100872.97;4932740;29;20039;-90
2023/09/19 05:00:19;;;;;;;9.63;2.08;;;;;;;12.51;100.00;100882.34;4930837;29;20146;-90
2023/09/19 05:02:46;;;;;;;15.02;2.30;;;;;;;12.42;100.00;100872.16;4931051;29;20039;-89
2023/09/19 05:05:12;;;;;;;16.35;2.75;;;;;;;12.45;100.00;100880.75;4932175;29;20398;-91
2023/09/19 05:07:41;;;;;;;14.90;2.15;;;;;;;12.25;100.00;100868.91;4912350;29;20031;-90
2023/09/19 05:10:07;;;;;;;16.30;2.17;;;;;;;12.26;100.00;100884.75;4931314;29;20114;-88
2023/09/19 05:12:36;;;;;;;8.65;1.80;;;;;;;12.15;100.00;100875.09;4945549;28;20023;-93
2023/09/19 05:15:08;;;;;;;16.85;2.08;;;;;;;12.00;100.00;100851.69;4945224;28;20059;-96
2023/09/19 05:17:35;;;;;;;12.50;1.97;;;;;;;12.15;100.00;100872.41;4937524;29;20165;-95
2023/09/19 05:20:14;;;;;;;18.23;2.10;;;;;;;12.05;100.00;100858.97;4960702;28;20035;-96
2023/09/19 05:22:43;;;;;;;8.60;1.98;;;;;;;11.91;100.00;100837.16;4922087;29;20166;-96
2023/09/19 05:31:54;;;;;;;12.30;2.10;;;;;;;11.93;100.00;100845.75;4889734;29;20122;-96
2023/09/19 05:34:20;;;;;;;11.95;2.13;;;;;;;11.90;100.00;100851.66;4903459;29;20040;-95
2023/09/19 05:36:45;;;;;;;9.63;1.97;;;;;;;12.18;100.00;100885.31;4935269;29;20110;-96
2023/09/19 05:39:10;;;;;;;13.00;2.07;;;;;;;12.14;100.00;100876.16;4935195;29;20450;-92
2023/09/19 05:41:36;;;;;;;8.57;1.83;;;;;;;12.22;100.00;100883.69;4931812;29;20153;-93
2023/09/19 05:44:03;;;;;;;11.68;2.22;;;;;;;12.23;100.00;100889.88;4916487;29;20034;-93
2023/09/19 05:46:29;;;;;;;13.63;2.10;;;;;;;12.27;100.00;100893.63;4936891;29;20031;-92
2023/09/19 05:48:56;;;;;;;12.13;2.47;;;;;;;12.31;100.00;100891.22;4935419;29;20335;-91
2023/09/19 05:51:22;;;;;;;15.80;1.83;;;;;;;12.30;100.00;100886.91;4937927;29;20020;-92
2023/09/19 05:53:48;;;;;;;10.25;2.00;;;;;;;12.34;100.00;100893.38;4936013;29;20031;-92
2023/09/19 05:56:14;;;;;;;10.93;1.95;;;;;;;12.35;100.00;100881.56;4929725;29;20184;-92
2023/09/19 05:58:42;;;;;;;12.53;2.33;;;;;;;12.35;100.00;100876.97;4903652;29;20376;-92
2023/09/19 06:01:09;;;;;;;13.20;2.17;;;;;;;12.38;100.00;100873.75;4935787;29;20858;-92
2023/09/19 06:03:35;;;;;;;12.75;2.08;;;;;;;12.46;100.00;100877.78;4916793;29;20039;-92
2023/09/19 06:06:04;;;;;;;13.45;2.13;;;;;;;12.51;100.00;100885.84;4937567;29;20032;-93
2023/09/19 06:08:31;;;;;;;9.40;2.28;;;;;;;12.55;100.00;100886.09;4924592;29;20031;-92
2023/09/19 06:10:56;;;;;;;12.02;2.00;;;;;;;12.61;100.00;100897.66;4934220;29;20028;-93
2023/09/19 06:13:22;;;;;;;15.57;2.50;;;;;;;12.61;100.00;100878.84;4935157;29;20517;-93
2023/09/19 06:15:47;;;;;;;15.77;2.42;;;;;;;12.76;100.00;100894.16;4935919;29;20031;-92
2023/09/19 06:18:19;;;;;;;10.40;1.97;;;;;;;12.82;100.00;100906.53;4934761;29;20039;-91
2023/09/19 06:20:48;;;;;;;12.20;2.17;;;;;;;12.76;100.00;100886.91;4914776;29;20040;-91
2023/09/19 06:23:14;;;;;;;11.02;2.10;;;;;;;12.87;100.00;100901.94;4916800;29;20048;-93
2023/09/19 06:25:40;;;;;;;15.00;1.95;;;;;;;12.93;100.00;100902.75;4917796;29;20035;-92
2023/09/19 06:28:08;;;;;;;12.25;2.30;;;;;;;12.98;100.00;100905.44;4930127;29;20031;-93
2023/09/19 06:30:34;;;;;;;13.32;2.00;;;;;;;12.95;100.00;100895.22;4934974;29;20495;-92
2023/09/19 06:33:00;;;;;;;14.57;2.27;;;;;;;13.04;100.00;100906.22;4947178;29;20035;-92
2023/09/19 06:35:26;;;;;;;14.47;2.50;;;;;;;13.01;100.00;100904.88;4947071;28;20284;-92
2023/09/19 06:37:52;;;;;;;16.55;2.30;;;;;;;13.11;100.00;100916.69;4934377;29;20135;-92
2023/09/19 06:40:19;;;;;;;9.60;2.13;;;;;;;13.16;100.00;100922.88;4948690;29;20008;-87
2023/09/19 06:42:50;;;;;;;11.02;1.90;;;;;;;13.25;100.00;100925.00;4915949;29;20114;-86
2023/09/19 06:45:18;;;;;;;15.52;2.50;;;;;;;13.27;100.00;100923.66;4921278;29;20031;-87
2023/09/19 06:47:50;;;;;;;10.07;2.23;;;;;;;13.34;100.00;100915.28;4923679;29;20062;-86
2023/09/19 06:50:22;;;;;;;14.73;2.57;;;;;;;13.42;100.00;100938.97;4925956;29;20774;-87
2023/09/19 06:55:24;;;;;;;13.20;2.38;;;;;;;13.51;100.00;100933.84;4892998;29;20053;-86
2023/09/19 06:57:50;;;;;;;19.75;2.60;;;;;;;13.56;100.00;100935.69;4906124;29;20869;-86
2023/09/19 07:00:18;;;;;;;15.45;2.20;;;;;;;13.52;100.00;100927.38;4893463;29;20078;-87
2023/09/19 07:02:54;;;;;;;10.47;1.97;;;;;;;13.63;100.00;100939.69;4883562;29;20376;-86
2023/09/19 07:05:20;;;;;;;10.93;2.35;;;;;;;13.67;100.00;100926.50;4907260;29;20143;-87
2023/09/19 07:07:45;;;;;;;15.57;1.88;;;;;;;13.70;100.00;100922.47;4897745;29;20036;-87
2023/09/19 07:10:10;;;;;;;14.40;2.77;;;;;;;13.78;100.00;100917.28;4915385;29;20035;-86
2023/09/19 07:12:36;;;;;;;13.13;2.60;;;;;;;13.98;100.00;100939.81;4913146;29;20569;-87
2023/09/19 07:15:02;;;;;;;15.93;2.80;;;;;;;13.95;100.00;100924.22;4914513;29;20047;-87
2023/09/19 07:17:28;;;;;;;11.70;2.50;;;;;;;14.06;100.00;100930.34;4913042;29;20403;-86
2023/09/19 07:19:53;;;;;;;12.85;1.98;;;;;;;14.14;100.00;100945.94;4909790;29;20452;-85
2023/09/19 07:22:18;;;;;;;14.60;2.30;;;;;;;14.26;100.00;100942.09;4913823;29;20039;-86
2023/09/19 07:24:43;;;;;;;11.90;1.80;;;;;;;14.30;100.00;100933.16;4915357;29;20111;-85
2023/09/19 07:27:09;;;;;;;9.73;1.90;;;;;;;14.44;100.00;100944.13;4924967;29;20075;-86
2023/09/19 07:29:34;;;;;;;12.53;2.40;;;;;;;14.36;100.00;100918.56;4912393;29;20123;-86
2023/09/19 07:32:00;;;;;;;19.85;2.20;;;;;;;14.49;100.00;100943.25;4893941;29;20032;-86
2023/09/19 07:34:25;;;;;;;10.23;1.90;;;;;;;14.41;100.00;100939.28;4912192;29;20032;-86
2023/09/19 07:36:50;;;;;;;12.47;2.50;;;;;;;14.32;100.00;100925.59;4909952;29;20075;-87
2023/09/19 07:39:16;;;;;;;12.80;2.03;;;;;;;14.26;100.00;100917.81;4913005;29;20442;-87
2023/09/19 07:41:41;;;;;;;10.85;2.08;;;;;;;14.41;100.00;100939.28;4914292;29;20024;-87
2023/09/19 07:44:09;;;;;;;16.23;2.57;;;;;;;14.39;100.00;100931.47;4915790;29;20467;-88
2023/09/19 07:46:35;;;;;;;13.90;2.45;;;;;;;14.42;100.00;100945.50;4923516;29;20119;-87
2023/09/19 07:49:00;;;;;;;13.87;2.40;;;;;;;14.49;100.00;100936.00;4913361;29;20074;-88
2023/09/19 07:51:26;;;;;;;16.90;2.50;;;;;;;14.60;100.00;100938.59;4913647;29;20062;-87
2023/09/19 07:53:52;;;;;;;11.40;2.27;;;;;;;14.73;100.00;100939.88;4916305;29;20889;-87
2023/09/19 07:56:20;;;;;;;12.77;2.15;;;;;;;14.84;100.00;100954.88;4917826;29;20044;-88
2023/09/19 07:58:45;;;;;;;11.90;2.38;;;;;;;14.79;100.00;100947.63;4896668;29;20055;-87
2023/09/19 08:01:13;;;;;;;12.53;2.77;;;;;;;14.84;100.00;100952.19;4920991;29;20036;-88
2023/09/19 08:03:40;;;;;;;12.43;2.05;;;;;;;14.93;100.00;100949.66;4897706;29;20032;-87
2023/09/19 08:06:06;;;;;;;13.15;2.00;;;;;;;15.06;100.00;100959.00;4927985;29;20038;-88
2023/09/19 08:08:32;;;;;;;12.05;2.17;;;;;;;15.06;100.00;100957.13;4912946;29;20036;-87
2023/09/19 08:10:58;;;;;;;15.17;2.37;;;;;;;15.14;100.00;100961.09;4913580;29;20035;-87
2023/09/19 08:13:24;;;;;;;18.10;2.25;;;;;;;15.25;100.00;100969.88;4896209;29;20032;-88
2023/09/19 08:15:50;;;;;;;17.10;2.03;;;;;;;15.28;100.00;100951.22;4926003;29;20107;-88
2023/09/19 08:18:16;;;;;;;12.37;2.70;;;;;;;15.43;100.00;100944.03;4919885;29;20334;-87
2023/09/19 08:20:46;;;;;;;12.43;2.42;;;;;;;15.57;100.00;100952.25;4896704;29;20372;-87
2023/09/19 08:23:11;;;;;;;11.82;2.35;;;;;;;15.66;100.00;100952.41;4913758;29;20021;-89
2023/09/19 08:25:38;;;;;;;14.07;2.40;;;;;;;15.68;100.00;100942.13;4893121;29;20037;-87
2023/09/19 08:28:08;;;;;;;14.00;3.05;;;;;;;15.74;100.00;100957.16;4903894;29;20119;-88
2023/09/19 08:30:34;;;;;;;11.32;2.30;;;;;;;15.69;100.00;100935.63;4913990;29;20047;-87
2023/09/19 08:33:00;;;;;;;12.85;2.03;;;;;;;15.58;100.00;100926.84;4913101;29;20071;-87
2023/09/19 08:35:29;;;;;;;12.32;2.20;;;;;;;15.73;100.00;100956.38;4917034;29;20046;-87
2023/09/19 08:37:55;;;;;;;12.65;2.42;;;;;;;15.86;100.00;100949.50;4922589;29;20040;-87
2023/09/19 08:40:21;;;;;;;9.15;1.70;;;;;;;15.84;100.00;100954.34;4913756;29;20032;-87
2023/09/19 08:42:50;;;;;;;16.57;2.30;;;;;;;15.86;100.00;100949.50;4913033;29;20087;-88
2023/09/19 08:45:16;;;;;;;12.75;2.28;;;;;;;16.11;100.00;100949.44;4916200;29;20024;-88
2023/09/19 08:47:50;;;;;;;13.70;2.00;;;;;;;16.37;100.00;100957.97;4924924;29;20100;-87
2023/09/19 08:50:19;;;;;;;10.10;2.10;;;;;;;16.53;100.00;100958.50;4913267;29;20035;-87
2023/09/19 08:52:46;;;;;;;11.53;2.40;;;;;;;16.43;100.00;100939.75;4912548;29;20288;-88
2023/09/19 08:55:20;;;;;;;15.82;2.20;;;;;;;16.42;100.00;100935.44;4902161;29;20565;-87
2023/09/19 08:57:48;;;;;;;11.40;2.10;;;;;;;16.29;100.00;100928.88;4924469;29;20032;-88
2023/09/19 09:00:18;;;;;;;8.95;1.77;;;;;;;16.26;100.00;100938.38;4913703;29;20028;-87
2023/09/19 09:02:45;;;;;;;13.88;2.35;;;;;;;16.41;100.00;100926.53;4912441;29;20052;-88
2023/09/19 09:05:11;;;;;;;15.15;2.25;;;;;;;16.56;100.00;100966.03;4891858;29;20032;-87
2023/09/19 09:07:40;;;;;;;9.75;2.08;;;;;;;16.53;100.00;100966.63;4894204;29;20040;-88
2023/09/19 09:10:07;;;;;;;12.77;2.43;;;;;;;16.43;100.00;100943.25;4895159;29;20029;-87
2023/09/19 09:12:36;;;;;;;13.23;2.53;;;;;;;16.56;100.00;100965.25;4896275;29;20308;-88
2023/09/19 09:15:03;;;;;;;14.90;2.53;;;;;;;16.50;100.00;100951.81;4904461;29;20031;-88
2023/09/19 09:17:29;;;;;;;11.35;2.28;;;;;;;16.50;100.00;100945.59;4916255;29;20443;-87
2023/09/19 09:19:55;;;;;;;11.82;2.45;;;;;;;16.60;100.00;100950.03;4913303;29;20111;-88
2023/09/19 09:22:21;;;;;;;11.23;1.97;;;;;;;16.48;100.00;100935.06;4917959;29;20040;-88
2023/09/19 09:24:58;;;;;;;12.00;2.33;;;;;;;16.62;100.00;100954.06;4915580;29;20051;-87
2023/09/19 09:27:24;;;;;;;9.73;1.92;;;;;;;16.71;100.00;100958.78;4932415;29;20066;-88
2023/09/19 09:29:51;;;;;;;12.25;2.38;;;;;;;16.85;100.00;100970.47;4932007;29;20051;-87
2023/09/19 09:32:27;;;;;;;13.25;2.40;;;;;;;16.86;100.00;100950.41;4931795;29;20028;-88
2023/09/19 09:34:55;;;;;;;16.33;2.43;;;;;;;16.99;100.00;100956.97;4928555;29;20453;-88
2023/09/19 09:37:22;;;;;;;13.40;2.20;;;;;;;17.03;100.00;100933.63;4932053;29;20279;-87
2023/09/19 09:39:58;;;;;;;11.82;2.00;;;;;;;17.02;100.00;100940.13;4914306;29;20693;-88
2023/09/19 09:42:35;;;;;;;9.90;2.25;;;;;;;17.17;100.00;100941.75;4914334;29;20039;-89
2023/09/19 09:45:37;;;;;;;12.88;2.38;;;;;;;17.43;100.00;100940.47;4909581;29;20121;-92
2023/09/19 09:48:03;;;;;;;13.60;2.20;;;;;;;17.44;100.00;100928.53;4914588;29;20024;-93
2023/09/19 09:50:44;;;;;;;14.05;2.20;;;;;;;17.57;100.00;100933.13;4919644;29;20114;-91
2023/09/19 09:53:32;;;;;;;11.00;2.22;;;;;;;17.73;100.00;100940.94;4918557;29;20031;-92
2023/09/19 09:56:11;;;;;;;15.47;2.90;;;;;;;17.82;100.00;100944.53;4919600;29;20032;-93
2023/09/19 09:58:55;;;;;;;13.27;2.20;;;;;;;17.91;100.00;100944.63;4880507;29;20805;-90
2023/09/19 10:01:26;;;;;;;15.82;2.53;;;;;;;17.77;100.00;100928.38;4915044;29;20036;-91
2023/09/19 10:03:57;;;;;;;10.65;2.58;;;;;;;17.82;100.00;100939.13;4900484;29;20043;-91
2023/09/19 10:06:26;;;;;;;19.33;3.17;;;;;;;17.78;100.00;100938.94;4894792;29;20063;-90
2023/09/19 10:09:10;;;;;;;15.43;2.50;;;;;;;17.77;100.00;100944.66;4902314;29;20527;-90
2023/09/19 10:12:03;;;;;;;8.43;2.10;;;;;;;17.94;100.00;100955.66;4912169;29;20028;-93
2023/09/19 10:14:37;;;;;;;20.35;2.42;;;;;;;17.97;100.00;100941.50;4918870;29;20468;-92
2023/09/19 10:17:05;;;;;;;11.30;2.38;;;;;;;18.00;100.00;100934.69;4917675;29;20028;-94
2023/09/19 10:19:48;;;;;;;14.27;2.30;;;;;;;18.06;100.00;100933.47;4898460;29;20513;-93
2023/09/19 10:22:16;;;;;;;14.85;2.03;;;;;;;18.21;99.97;100947.78;4916108;29;20032;-92
2023/09/19 10:24:53;;;;;;;8.63;2.03;;;;;;;18.31;97.74;100944.84;4899300;29;20558;-92
2023/09/19 10:27:21;;;;;;;14.73;2.33;;;;;;;18.37;98.49;100929.25;4917877;29;20051;-94
2023/09/19 10:29:53;;;;;;;11.68;2.20;;;;;;;18.31;95.16;100934.78;4916020;29;20042;-94
2023/09/19 10:32:21;;;;;;;6.60;1.67;;;;;;;18.21;98.71;100913.34;4914456;29;20028;-94
2023/09/19 10:37:27;;;;;;;13.23;2.40;;;;;;;18.43;94.44;100930.72;5885291;23;20766;-94
2023/09/19 10:39:55;;;;;;;9.98;2.13;;;;;;;18.45;91.63;100923.06;4961007;28;20090;-93
2023/09/19 10:42:28;;;;;;;8.73;2.25;;;;;;;18.44;92.14;100933.13;4937955;29;20027;-94
2023/09/19 10:44:59;;;;;;;10.43;2.30;;;;;;;18.67;92.46;100935.00;4937069;29;20043;-93
2023/09/19 10:47:24;;;;;;;13.43;2.30;;;;;;;18.80;90.53;100925.19;4922495;29;20020;-93
2023/09/19 10:49:50;;;;;;;11.30;2.30;;;;;;;19.06;90.48;100938.94;4935659;29;20487;-92
2023/09/19 10:52:21;;;;;;;10.00;2.00;;;;;;;19.26;89.70;100936.78;4917926;29;20035;-93
2023/09/19 10:54:51;;;;;;;9.07;1.85;;;;;;;19.36;88.14;100918.28;4930969;29;20032;-92
2023/09/19 10:57:27;;;;;;;9.07;2.25;;;;;;;19.38;90.27;100915.22;4919391;29;20106;-93
2023/09/19 11:00:34;;;;;;;8.13;1.90;;;;;;;19.68;87.99;100923.63;4926782;29;20043;-94
2023/09/19 11:03:11;;;;;;;11.48;2.08;;;;;;;19.78;88.18;100917.88;4933763;29;20396;-93
2023/09/19 11:05:40;;;;;;;11.05;2.38;;;;;;;19.63;84.23;100915.63;4936272;29;20059;-92
2023/09/19 11:08:07;;;;;;;8.47;2.60;;;;;;;19.77;85.88;100910.81;4917147;29;20027;-94
2023/09/19 11:10:50;;;;;;;9.70;1.92;;;;;;;19.92;85.25;100900.63;4934927;29;20554;-93
2023/09/19 11:13:26;;;;;;;8.07;1.92;;;;;;;19.92;85.44;100892.47;4923694;29;20115;-94
2023/09/19 11:15:58;;;;;;;7.97;1.80;;;;;;;19.95;84.95;100878.25;4932664;29;20086;-92
2023/09/19 11:18:52;;;;;;;10.85;1.98;;;;;;;19.90;84.81;100881.13;4925756;29;20091;-91
2023/09/19 11:21:30;;;;;;;9.27;1.90;;;;;;;19.81;84.03;100884.63;4919016;29;20032;-94
2023/09/19 11:24:26;;;;;;;8.03;1.60;;;;;;;19.85;83.87;100900.28;4916635;29;20028;-93
2023/09/19 11:26:53;;;;;;;10.10;1.90;;;;;;;19.86;79.21;100883.66;4923667;29;20392;-94
2023/09/19 11:29:25;;;;;;;11.60;1.83;;;;;;;19.76;77.54;100886.69;4913366;29;20028;-93
2023/09/19 11:31:51;;;;;;;11.20;2.03;;;;;;;19.75;82.35;100880.44;4927051;29;20024;-93
2023/09/19 11:34:35;;;;;;;9.50;1.90;;;;;;;19.86;81.78;100874.72;4909056;29;20054;-93